Time;durP1;ratioP1;P1;durP2;ratioP2;P2;SDS_P1;SDS_P2;PMS_P1;PMS_P2;Temp;Humidity;BMP_temperature;BMP_pressure;BME280_temperature;BME280_humidity;BME280_pressure;Samples;Min_cycle;Max_cycle;Signal;HPM_P1;HPM_P2
2021/11/27 00:01:46;;;;;;;5.10;2.90;;;2.80;99.90;;;;;;5057593;28;20462;-63
2021/11/27 00:04:13;;;;;;;5.87;3.23;;;2.90;99.90;;;;;;5057534;28;20872;-63
2021/11/27 00:06:41;;;;;;;3.90;2.50;;;2.90;99.90;;;;;;5056348;28;20990;-63
2021/11/27 00:09:10;;;;;;;5.33;3.17;;;2.90;99.90;;;;;;5057713;28;20946;-63
2021/11/27 00:11:42;;;;;;;3.53;2.50;;;2.90;99.90;;;;;;5056159;28;20466;-63
2021/11/27 00:14:11;;;;;;;3.53;1.90;;;2.90;99.90;;;;;;5057049;28;20576;-63
2021/11/27 00:16:39;;;;;;;9.27;4.33;;;2.90;99.90;;;;;;5057299;28;20571;-63
2021/11/27 00:19:11;;;;;;;6.80;3.90;;;2.90;99.90;;;;;;5057543;28;20472;-63
2021/11/27 00:21:39;;;;;;;4.80;2.90;;;2.90;99.90;;;;;;5055962;28;20779;-63
2021/11/27 00:24:07;;;;;;;8.30;3.50;;;2.90;99.90;;;;;;5056992;28;20466;-63
2021/11/27 00:26:37;;;;;;;7.80;2.90;;;3.00;99.90;;;;;;5056836;28;20470;-63
2021/11/27 00:29:05;;;;;;;4.43;2.07;;;2.90;99.90;;;;;;5057561;28;20839;-63
2021/11/27 00:31:37;;;;;;;7.27;3.33;;;3.00;99.90;;;;;;5056970;28;20904;-62
2021/11/27 00:34:06;;;;;;;8.00;3.83;;;3.00;99.90;;;;;;5056586;28;20490;-63
2021/11/27 00:36:34;;;;;;;6.00;3.10;;;3.00;99.90;;;;;;5056727;28;20551;-63
2021/11/27 00:39:05;;;;;;;5.87;2.63;;;2.90;99.90;;;;;;5057104;28;20466;-63
2021/11/27 00:41:32;;;;;;;7.60;2.70;;;3.00;99.90;;;;;;5056874;28;20458;-63
2021/11/27 00:43:59;;;;;;;3.70;2.23;;;3.00;99.90;;;;;;5055982;28;20505;-63
2021/11/27 00:46:27;;;;;;;2.70;2.10;;;3.00;99.90;;;;;;5056484;28;20469;-62
2021/11/27 00:48:57;;;;;;;2.70;2.13;;;2.90;99.90;;;;;;5056810;28;20462;-63
2021/11/27 00:51:28;;;;;;;3.77;2.60;;;2.90;99.90;;;;;;5056058;28;20466;-63
2021/11/27 00:53:56;;;;;;;2.97;2.10;;;2.90;99.90;;;;;;5055917;28;20784;-62
2021/11/27 00:56:25;;;;;;;1.93;1.73;;;2.90;99.90;;;;;;5056908;28;20466;-63
2021/11/27 00:58:57;;;;;;;2.40;2.10;;;2.90;99.90;;;;;;5057063;28;20503;-64
2021/11/27 01:01:27;;;;;;;2.30;1.60;;;2.80;99.90;;;;;;5056406;28;20466;-64
2021/11/27 01:03:59;;;;;;;2.03;1.70;;;2.80;99.90;;;;;;5056098;28;20489;-63
2021/11/27 01:06:35;;;;;;;2.20;2.00;;;2.70;99.90;;;;;;5036400;28;20503;-63
2021/11/27 01:09:09;;;;;;;2.40;2.00;;;2.70;99.90;;;;;;5055656;28;20535;-64
2021/11/27 01:11:41;;;;;;;2.63;2.43;;;2.70;99.90;;;;;;5056199;28;20565;-65
2021/11/27 01:14:17;;;;;;;3.23;2.17;;;2.60;99.90;;;;;;5056791;28;20536;-64
2021/11/27 01:16:48;;;;;;;2.30;2.07;;;2.60;99.90;;;;;;5056111;28;20494;-64
2021/11/27 01:19:19;;;;;;;2.60;2.40;;;2.60;99.90;;;;;;5056381;28;20559;-64
2021/11/27 01:21:51;;;;;;;2.17;1.87;;;2.60;99.90;;;;;;5056785;28;20470;-63
2021/11/27 01:24:25;;;;;;;3.57;2.53;;;2.50;99.90;;;;;;5055532;28;20472;-63
2021/11/27 01:26:54;;;;;;;2.53;2.20;;;2.40;99.90;;;;;;5054896;28;20489;-64
2021/11/27 01:29:24;;;;;;;2.40;2.00;;;2.40;99.90;;;;;;5055517;28;20477;-63
2021/11/27 01:31:51;;;;;;;2.10;1.90;;;2.30;99.90;;;;;;5056376;28;20620;-63
2021/11/27 01:34:20;;;;;;;2.90;2.60;;;2.30;99.90;;;;;;5056741;28;20581;-64
2021/11/27 01:36:50;;;;;;;2.10;1.90;;;2.30;99.90;;;;;;5055885;28;20768;-64
2021/11/27 01:39:20;;;;;;;2.23;2.03;;;2.30;99.90;;;;;;5055647;28;20496;-63
2021/11/27 01:41:47;;;;;;;2.43;2.10;;;2.30;99.90;;;;;;5055791;28;20830;-63
2021/11/27 01:44:15;;;;;;;2.33;2.13;;;2.30;99.90;;;;;;5056797;28;20477;-63
2021/11/27 01:46:43;;;;;;;2.80;2.50;;;2.20;99.90;;;;;;5055621;28;20466;-63
2021/11/27 01:49:11;;;;;;;2.63;2.27;;;2.30;99.90;;;;;;5070507;28;20556;-63
2021/11/27 01:51:42;;;;;;;2.53;2.20;;;2.30;99.90;;;;;;5069178;28;20466;-63
2021/11/27 01:54:12;;;;;;;2.83;2.53;;;2.30;99.90;;;;;;5056301;28;20493;-63
2021/11/27 01:56:42;;;;;;;3.80;2.50;;;2.30;99.90;;;;;;5056187;28;20539;-63
2021/11/27 01:59:10;;;;;;;2.27;2.07;;;2.30;99.90;;;;;;5055528;28;20896;-63
2021/11/27 02:01:38;;;;;;;2.80;2.60;;;2.40;99.90;;;;;;5055657;28;20481;-64
2021/11/27 02:04:12;;;;;;;2.77;2.57;;;2.30;99.90;;;;;;5059108;28;20555;-64
2021/11/27 02:06:43;;;;;;;3.00;2.53;;;2.30;99.90;;;;;;5059712;28;20914;-63
2021/11/27 02:09:15;;;;;;;2.73;2.50;;;2.30;99.90;;;;;;5059332;28;20461;-64
2021/11/27 02:11:43;;;;;;;3.00;2.70;;;2.40;99.90;;;;;;5059546;28;20804;-63
2021/11/27 02:14:11;;;;;;;2.73;2.50;;;2.40;99.90;;;;;;5058885;28;20589;-64
2021/11/27 02:16:41;;;;;;;4.37;3.03;;;2.40;99.90;;;;;;5059325;28;20552;-65
2021/11/27 02:19:09;;;;;;;3.23;2.90;;;2.40;99.90;;;;;;5060032;28;20443;-64
2021/11/27 02:21:44;;;;;;;3.60;3.30;;;2.40;99.90;;;;;;5059024;28;20511;-64
2021/11/27 02:24:11;;;;;;;3.27;2.97;;;2.40;99.90;;;;;;5059343;28;20527;-64
2021/11/27 02:26:39;;;;;;;3.53;3.23;;;2.40;99.90;;;;;;5059227;28;20835;-64
2021/11/27 02:29:10;;;;;;;4.90;3.13;;;2.40;99.90;;;;;;5059380;28;20510;-64
2021/11/27 02:31:41;;;;;;;3.73;3.40;;;2.40;99.90;;;;;;5059512;28;20899;-64
2021/11/27 02:34:09;;;;;;;3.20;2.90;;;2.40;99.90;;;;;;5059410;28;20536;-65
2021/11/27 02:36:38;;;;;;;4.63;3.47;;;2.40;99.90;;;;;;5058581;28;20560;-64
2021/11/27 02:39:11;;;;;;;6.03;3.47;;;2.40;99.90;;;;;;5059366;28;20542;-64
2021/11/27 02:41:39;;;;;;;3.43;3.00;;;2.40;99.90;;;;;;5059207;28;20888;-63
2021/11/27 02:44:08;;;;;;;3.70;3.27;;;2.40;99.90;;;;;;5059429;28;20763;-63
2021/11/27 02:46:36;;;;;;;3.60;3.30;;;2.40;99.90;;;;;;5058857;28;20463;-63
2021/11/27 02:49:04;;;;;;;3.30;3.00;;;2.50;99.90;;;;;;5058856;28;20524;-63
2021/11/27 02:51:32;;;;;;;3.50;3.20;;;2.50;99.90;;;;;;5058695;28;20553;-63
2021/11/27 02:53:59;;;;;;;3.93;3.50;;;2.60;99.90;;;;;;5058766;28;20560;-63
2021/11/27 02:56:29;;;;;;;4.10;3.70;;;2.50;99.90;;;;;;5058888;28;20842;-63
2021/11/27 02:58:56;;;;;;;3.40;3.10;;;2.50;99.90;;;;;;5058087;28;20474;-63
2021/11/27 03:01:24;;;;;;;4.70;4.10;;;2.50;99.90;;;;;;5058477;28;20476;-63
2021/11/27 03:03:52;;;;;;;4.00;3.60;;;2.50;99.90;;;;;;5058472;28;20501;-63
2021/11/27 03:06:21;;;;;;;3.80;3.50;;;2.60;99.90;;;;;;5058747;28;20458;-63
2021/11/27 03:08:52;;;;;;;3.50;3.20;;;2.60;99.90;;;;;;5057605;28;20476;-63
2021/11/27 03:11:21;;;;;;;3.63;3.33;;;2.60;99.90;;;;;;5057876;28;20492;-63
2021/11/27 03:13:53;;;;;;;3.60;3.30;;;2.60;99.90;;;;;;5058140;28;20564;-63
2021/11/27 03:16:24;;;;;;;4.23;3.80;;;2.60;99.90;;;;;;5058496;28;20494;-63
2021/11/27 03:18:52;;;;;;;3.50;3.20;;;2.60;99.90;;;;;;5058063;28;20552;-63
2021/11/27 03:21:19;;;;;;;4.20;3.80;;;2.70;99.90;;;;;;5058240;28;20924;-63
2021/11/27 03:23:46;;;;;;;3.63;3.33;;;2.70;99.90;;;;;;5058302;28;20577;-63
2021/11/27 03:26:15;;;;;;;4.30;3.80;;;2.70;99.90;;;;;;5058727;28;20549;-63
2021/11/27 03:28:46;;;;;;;4.60;4.13;;;2.70;99.90;;;;;;5057998;28;20493;-63
2021/11/27 03:31:15;;;;;;;4.80;3.40;;;2.70;99.90;;;;;;5058414;28;20549;-63
2021/11/27 03:33:45;;;;;;;3.70;3.40;;;2.70;99.90;;;;;;5057701;28;20494;-63
2021/11/27 03:36:14;;;;;;;3.40;3.10;;;2.70;99.90;;;;;;5058221;28;20589;-63
2021/11/27 03:38:41;;;;;;;4.57;4.17;;;2.70;99.90;;;;;;5057699;28;20459;-63
2021/11/27 03:41:09;;;;;;;3.47;3.10;;;2.70;99.90;;;;;;5058477;28;20466;-62
2021/11/27 03:43:39;;;;;;;3.60;3.30;;;2.70;99.90;;;;;;5057891;28;20466;-64
2021/11/27 03:46:07;;;;;;;5.23;4.73;;;2.70;99.90;;;;;;5058061;28;20475;-62
2021/11/27 03:48:40;;;;;;;4.70;4.27;;;2.70;99.90;;;;;;5057242;28;20982;-62
2021/11/27 03:51:09;;;;;;;4.47;4.07;;;2.70;99.90;;;;;;5057932;28;20476;-63
2021/11/27 03:53:46;;;;;;;6.40;4.30;;;2.70;99.90;;;;;;5057624;28;20534;-62
2021/11/27 03:56:16;;;;;;;4.77;4.27;;;2.70;99.90;;;;;;5057809;28;20497;-62
2021/11/27 03:58:45;;;;;;;7.50;4.20;;;2.70;99.90;;;;;;5057036;28;20583;-62
2021/11/27 04:01:14;;;;;;;4.17;3.77;;;2.70;99.90;;;;;;5057868;28;20458;-61
2021/11/27 04:03:45;;;;;;;5.00;4.50;;;2.70;99.90;;;;;;5056827;28;20588;-62
2021/11/27 04:06:15;;;;;;;4.83;4.10;;;2.80;99.90;;;;;;5057242;28;20462;-62
2021/11/27 04:08:42;;;;;;;4.53;4.10;;;2.80;99.90;;;;;;5057802;28;20462;-61
2021/11/27 04:11:10;;;;;;;4.30;3.90;;;2.80;99.90;;;;;;5056618;28;20557;-62
2021/11/27 04:13:37;;;;;;;4.80;4.30;;;2.90;99.90;;;;;;5057243;28;20565;-62
2021/11/27 04:16:07;;;;;;;4.87;4.37;;;2.90;99.90;;;;;;5056665;28;20893;-59
2021/11/27 04:18:35;;;;;;;6.53;5.50;;;2.90;99.90;;;;;;5057550;28;20825;-63
2021/11/27 04:21:05;;;;;;;9.00;8.20;;;3.00;99.90;;;;;;5057635;28;20512;-63
2021/11/27 04:23:35;;;;;;;8.67;7.80;;;2.90;99.90;;;;;;5056942;28;20512;-62
2021/11/27 04:26:03;;;;;;;10.03;9.10;;;3.00;99.90;;;;;;5055668;28;20486;-62
2021/11/27 04:28:31;;;;;;;10.00;9.00;;;3.10;99.90;;;;;;5056984;28;20926;-63
2021/11/27 04:30:58;;;;;;;11.33;8.43;;;3.00;99.90;;;;;;5057514;28;20565;-62
2021/11/27 04:33:27;;;;;;;7.43;6.60;;;2.90;99.90;;;;;;5057192;28;20797;-62
2021/11/27 04:35:54;;;;;;;8.33;7.20;;;2.80;99.90;;;;;;5056280;28;20526;-61
2021/11/27 04:38:24;;;;;;;9.40;8.40;;;2.70;99.90;;;;;;5057246;28;20561;-62
2021/11/27 04:40:55;;;;;;;11.13;9.73;;;2.70;99.90;;;;;;5056935;28;20811;-62
2021/11/27 04:43:23;;;;;;;8.97;8.07;;;2.70;99.90;;;;;;5057000;28;20462;-62
2021/11/27 04:45:50;;;;;;;7.67;6.93;;;2.60;99.90;;;;;;5056981;28;20468;-62
2021/11/27 04:48:18;;;;;;;8.37;6.60;;;2.50;99.90;;;;;;5063165;28;20929;-62
2021/11/27 04:50:45;;;;;;;7.27;6.47;;;2.50;99.90;;;;;;5065121;28;20534;-62
2021/11/27 04:53:14;;;;;;;6.57;5.83;;;2.40;99.90;;;;;;5056628;28;20829;-61
2021/11/27 04:55:43;;;;;;;6.73;5.60;;;2.40;99.90;;;;;;5056534;28;20502;-60
2021/11/27 04:58:11;;;;;;;6.73;5.67;;;2.40;99.90;;;;;;5055303;28;20516;-62
2021/11/27 05:00:40;;;;;;;7.53;6.70;;;2.40;99.90;;;;;;5053904;28;20494;-61
2021/11/27 05:03:07;;;;;;;7.93;6.17;;;2.50;99.90;;;;;;5056118;28;20466;-63
2021/11/27 05:05:35;;;;;;;6.47;5.10;;;2.40;99.90;;;;;;5056206;28;20488;-62
2021/11/27 05:08:03;;;;;;;6.60;5.70;;;2.40;99.90;;;;;;5055754;28;20462;-62
2021/11/27 05:10:30;;;;;;;7.27;6.03;;;2.30;99.90;;;;;;5056529;28;20469;-62
2021/11/27 05:12:59;;;;;;;7.63;5.97;;;2.40;99.90;;;;;;5056119;28;20556;-62
2021/11/27 05:15:27;;;;;;;9.60;6.47;;;2.30;99.90;;;;;;5056631;28;20560;-60
2021/11/27 05:17:54;;;;;;;8.63;6.50;;;2.30;99.90;;;;;;5056733;28;20540;-62
2021/11/27 05:20:21;;;;;;;8.40;6.80;;;2.30;99.90;;;;;;5055917;28;20470;-62
2021/11/27 05:22:48;;;;;;;7.73;6.80;;;2.30;99.90;;;;;;5056135;28;20960;-61
2021/11/27 05:25:17;;;;;;;8.33;6.07;;;2.30;99.90;;;;;;5056467;28;20773;-62
2021/11/27 05:27:45;;;;;;;8.50;6.87;;;2.30;99.90;;;;;;5056302;28;20499;-62
2021/11/27 05:30:20;;;;;;;6.43;5.83;;;2.30;99.90;;;;;;5055757;28;20481;-63
2021/11/27 05:35:35;;;;;;;7.87;5.60;;;2.30;99.90;;;;;;5052176;28;20477;-62
2021/11/27 05:38:03;;;;;;;6.83;5.50;;;2.30;99.90;;;;;;5060388;28;20899;-62
2021/11/27 05:40:30;;;;;;;6.90;6.17;;;2.30;99.90;;;;;;5059909;28;20806;-62
2021/11/27 05:42:58;;;;;;;7.90;6.23;;;2.30;99.90;;;;;;5060252;28;20497;-62
2021/11/27 05:45:30;;;;;;;8.13;6.80;;;2.30;99.90;;;;;;5060668;28;20472;-62
2021/11/27 05:47:58;;;;;;;9.13;7.60;;;2.30;99.90;;;;;;5059881;28;21141;-62
2021/11/27 05:50:26;;;;;;;11.00;8.20;;;2.30;99.90;;;;;;5059710;28;20560;-62
2021/11/27 05:52:54;;;;;;;11.80;8.27;;;2.30;99.90;;;;;;5059399;28;20469;-62
2021/11/27 05:55:23;;;;;;;13.67;9.47;;;2.30;99.90;;;;;;5059343;28;20489;-62
2021/11/27 05:57:51;;;;;;;17.57;10.20;;;2.30;99.90;;;;;;5059872;28;20565;-62
2021/11/27 06:00:18;;;;;;;11.43;9.23;;;2.30;99.90;;;;;;5062595;28;20470;-62
2021/11/27 06:02:48;;;;;;;11.30;9.30;;;2.30;99.90;;;;;;5059305;28;20466;-63
2021/11/27 06:05:16;;;;;;;14.40;10.97;;;2.40;99.90;;;;;;5059163;28;20486;-62
2021/11/27 06:07:43;;;;;;;12.20;9.57;;;2.40;99.90;;;;;;5059826;28;20501;-63
2021/11/27 06:10:13;;;;;;;13.17;9.77;;;2.30;99.90;;;;;;5059575;28;20466;-63
2021/11/27 06:12:41;;;;;;;14.20;9.77;;;2.40;99.90;;;;;;5059211;28;20564;-63
2021/11/27 06:15:09;;;;;;;12.50;10.00;;;2.40;99.90;;;;;;5060157;28;20556;-62
2021/11/27 06:17:36;;;;;;;14.50;10.60;;;2.40;99.90;;;;;;5059270;28;20462;-62
2021/11/27 06:20:10;;;;;;;14.97;10.87;;;2.40;99.90;;;;;;5056895;28;20560;-63
2021/11/27 06:22:38;;;;;;;12.83;9.87;;;2.40;99.90;;;;;;5059810;28;20500;-62
2021/11/27 06:25:06;;;;;;;13.77;10.10;;;2.50;99.90;;;;;;5059202;28;20565;-63
2021/11/27 06:27:36;;;;;;;14.93;10.00;;;2.40;99.90;;;;;;5059618;28;20772;-62
2021/11/27 06:30:03;;;;;;;13.97;10.60;;;2.50;99.90;;;;;;5058894;28;20565;-62
2021/11/27 06:32:31;;;;;;;13.37;10.23;;;2.40;99.90;;;;;;5059444;28;20482;-62
2021/11/27 06:34:58;;;;;;;13.67;9.30;;;2.40;99.90;;;;;;5059599;28;20880;-63
2021/11/27 06:37:27;;;;;;;11.47;9.03;;;2.40;99.90;;;;;;5058946;28;20500;-62
2021/11/27 06:39:59;;;;;;;10.00;8.70;;;2.40;99.90;;;;;;5058485;28;20562;-63
2021/11/27 06:42:26;;;;;;;13.07;10.87;;;2.50;99.90;;;;;;5058958;28;20467;-62
2021/11/27 06:44:54;;;;;;;11.13;8.27;;;2.50;99.90;;;;;;5059708;28;20888;-62
2021/11/27 06:47:23;;;;;;;10.83;8.93;;;2.40;99.90;;;;;;5059013;28;20458;-62
2021/11/27 06:49:55;;;;;;;11.37;8.93;;;2.50;99.90;;;;;;5057140;28;20462;-62
2021/11/27 06:52:22;;;;;;;13.37;10.20;;;2.50;99.90;;;;;;5059230;28;20565;-62
2021/11/27 06:54:54;;;;;;;12.17;8.77;;;2.50;99.90;;;;;;5059611;28;20768;-62
2021/11/27 06:57:22;;;;;;;11.30;8.87;;;2.50;99.90;;;;;;5058676;28;20498;-62
2021/11/27 06:59:52;;;;;;;13.50;8.40;;;2.50;99.90;;;;;;5058259;28;20593;-62
2021/11/27 07:02:19;;;;;;;10.60;8.70;;;2.50;99.90;;;;;;5039038;28;20553;-62
2021/11/27 07:04:49;;;;;;;13.50;9.27;;;2.50;99.90;;;;;;5055569;28;20593;-61
2021/11/27 07:07:19;;;;;;;10.00;8.87;;;2.40;99.90;;;;;;5058158;28;20470;-60
2021/11/27 07:09:47;;;;;;;15.53;10.77;;;2.50;99.90;;;;;;5058351;28;20920;-61
2021/11/27 07:12:18;;;;;;;11.63;9.20;;;2.50;99.90;;;;;;5057666;28;20555;-62
2021/11/27 07:14:47;;;;;;;11.93;9.60;;;2.50;99.90;;;;;;5058783;28;20540;-62
2021/11/27 07:17:15;;;;;;;13.10;10.00;;;2.50;99.90;;;;;;5057853;28;20588;-61
2021/11/27 07:19:46;;;;;;;12.87;9.60;;;2.50;99.90;;;;;;5058403;28;20473;-61
2021/11/27 07:22:14;;;;;;;15.03;10.50;;;2.50;99.90;;;;;;5057679;28;20460;-61
2021/11/27 07:24:42;;;;;;;14.30;11.07;;;2.60;99.90;;;;;;5058620;28;20949;-62
2021/11/27 07:27:09;;;;;;;15.40;10.17;;;2.60;99.90;;;;;;5058078;28;20839;-62
2021/11/27 07:29:39;;;;;;;12.60;8.83;;;2.60;99.90;;;;;;5058095;28;20473;-62
2021/11/27 07:32:07;;;;;;;15.30;11.60;;;2.60;99.90;;;;;;5057429;28;20556;-62
2021/11/27 07:34:36;;;;;;;14.80;11.23;;;2.60;99.90;;;;;;5058265;28;20466;-62
2021/11/27 07:37:04;;;;;;;24.27;14.60;;;2.60;99.90;;;;;;5057833;28;20807;-62
2021/11/27 07:39:31;;;;;;;14.47;10.97;;;2.60;99.90;;;;;;5058222;28;20498;-62
2021/11/27 07:42:01;;;;;;;13.57;10.87;;;2.60;99.90;;;;;;5057944;28;20817;-62
2021/11/27 07:44:29;;;;;;;13.33;11.07;;;2.60;99.90;;;;;;5057331;28;20492;-62
2021/11/27 07:46:58;;;;;;;16.57;12.20;;;2.70;99.90;;;;;;5059414;28;20842;-62
2021/11/27 07:49:26;;;;;;;13.40;10.83;;;2.70;99.90;;;;;;5057588;28;20556;-62
2021/11/27 07:52:01;;;;;;;19.63;12.87;;;2.70;99.90;;;;;;5057577;28;20466;-62
2021/11/27 07:54:28;;;;;;;14.50;11.67;;;2.70;99.90;;;;;;5057049;28;20564;-62
2021/11/27 07:56:56;;;;;;;15.87;12.20;;;2.70;99.90;;;;;;5056973;28;20894;-62
2021/11/27 07:59:23;;;;;;;16.77;12.63;;;2.70;99.90;;;;;;5057637;28;20520;-62
2021/11/27 08:01:51;;;;;;;17.10;12.93;;;2.70;99.90;;;;;;5057285;28;20466;-62
2021/11/27 08:04:20;;;;;;;15.63;12.47;;;2.70;99.90;;;;;;5056562;28;20589;-62
2021/11/27 08:06:47;;;;;;;14.80;11.40;;;2.80;99.90;;;;;;5057334;28;20462;-62
2021/11/27 08:09:14;;;;;;;17.90;12.60;;;2.90;99.90;;;;;;5057636;28;20458;-62
2021/11/27 08:11:42;;;;;;;13.90;11.30;;;2.90;99.90;;;;;;5056381;28;20564;-60
2021/11/27 08:14:10;;;;;;;17.87;13.03;;;2.90;99.90;;;;;;5059317;28;20549;-62
2021/11/27 08:16:39;;;;;;;12.87;10.73;;;2.90;99.90;;;;;;5065467;28;20577;-62
2021/11/27 08:19:07;;;;;;;18.10;11.70;;;2.90;99.90;;;;;;5078092;28;20837;-62
2021/11/27 08:21:36;;;;;;;14.87;11.73;;;2.90;99.90;;;;;;5067486;28;20914;-62
2021/11/27 08:24:06;;;;;;;14.43;11.57;;;2.90;99.90;;;;;;5067548;28;20548;-62
2021/11/27 08:26:37;;;;;;;16.20;12.73;;;2.90;99.90;;;;;;5037682;28;20451;-62
2021/11/27 08:29:07;;;;;;;17.00;12.73;;;2.90;99.90;;;;;;5051591;28;20553;-62
2021/11/27 08:31:34;;;;;;;18.07;11.80;;;2.90;99.90;;;;;;5056166;28;20533;-62
2021/11/27 08:34:04;;;;;;;16.10;12.40;;;3.00;99.90;;;;;;5057017;28;20533;-60
2021/11/27 08:36:33;;;;;;;15.50;11.47;;;3.00;99.90;;;;;;5056589;28;20485;-62
2021/11/27 08:41:48;;;;;;;17.63;12.70;;;3.00;99.90;;;;;;5048273;28;20477;-60
2021/11/27 08:44:15;;;;;;;18.37;12.90;;;3.00;99.90;;;;;;5056708;28;20461;-61
2021/11/27 08:46:48;;;;;;;19.83;13.07;;;3.00;99.90;;;;;;5054283;28;20460;-62
2021/11/27 08:49:15;;;;;;;18.07;14.17;;;3.00;99.90;;;;;;5069232;28;20553;-61
2021/11/27 08:51:44;;;;;;;16.17;13.90;;;3.00;99.90;;;;;;5056175;28;20537;-62
2021/11/27 08:54:15;;;;;;;20.13;13.60;;;3.00;99.90;;;;;;5052882;28;20455;-61
2021/11/27 08:56:43;;;;;;;18.70;14.40;;;3.10;99.90;;;;;;5055996;28;20580;-62
2021/11/27 08:59:13;;;;;;;19.37;13.80;;;3.10;99.90;;;;;;5058690;28;20791;-63
2021/11/27 09:01:42;;;;;;;18.53;14.03;;;3.20;99.90;;;;;;5059229;28;20494;-62
2021/11/27 09:04:09;;;;;;;15.20;12.77;;;3.20;99.90;;;;;;5061703;28;20946;-63
2021/11/27 09:06:40;;;;;;;21.60;15.73;;;3.20;99.90;;;;;;5063558;28;20493;-62
2021/11/27 09:09:08;;;;;;;20.97;15.23;;;3.30;99.90;;;;;;5058289;28;20781;-62
2021/11/27 09:11:37;;;;;;;18.87;14.60;;;3.30;99.90;;;;;;5059935;28;20820;-62
2021/11/27 09:14:08;;;;;;;21.60;14.47;;;3.30;99.90;;;;;;5059120;28;20469;-62
2021/11/27 09:16:39;;;;;;;19.13;14.53;;;3.20;99.90;;;;;;5063763;28;20583;-62
2021/11/27 09:19:07;;;;;;;22.57;13.77;;;3.30;99.90;;;;;;5065709;28;20503;-63
2021/11/27 09:21:40;;;;;;;19.33;13.57;;;3.30;99.90;;;;;;5063496;28;20453;-61
2021/11/27 09:24:10;;;;;;;19.40;13.63;;;3.30;99.90;;;;;;5067068;28;20485;-62
2021/11/27 09:26:39;;;;;;;18.47;13.43;;;3.40;99.90;;;;;;5064306;28;20467;-60
2021/11/27 09:29:08;;;;;;;23.33;14.37;;;3.50;99.90;;;;;;5066726;28;20887;-61
2021/11/27 09:31:39;;;;;;;20.83;13.00;;;3.50;99.90;;;;;;5068060;28;20457;-62
2021/11/27 09:34:07;;;;;;;24.50;14.40;;;3.60;99.90;;;;;;5069502;28;20462;-62
2021/11/27 09:36:38;;;;;;;17.33;12.37;;;3.60;99.90;;;;;;5062984;28;20561;-61
2021/11/27 09:39:06;;;;;;;14.77;12.47;;;3.60;99.90;;;;;;5063357;28;20450;-62
2021/11/27 09:41:34;;;;;;;20.20;12.33;;;3.60;99.90;;;;;;5063016;28;20482;-62
2021/11/27 09:44:07;;;;;;;17.33;11.40;;;3.60;99.90;;;;;;5061742;28;20772;-61
2021/11/27 09:46:39;;;;;;;17.10;11.00;;;3.60;99.90;;;;;;5075530;28;20544;-62
2021/11/27 09:49:08;;;;;;;18.30;12.83;;;3.60;99.90;;;;;;5061888;28;20454;-62
2021/11/27 09:51:37;;;;;;;16.43;13.73;;;3.60;99.90;;;;;;5060874;28;20458;-62
2021/11/27 09:54:05;;;;;;;16.37;11.90;;;3.60;99.90;;;;;;5061567;28;20461;-61
2021/11/27 09:56:37;;;;;;;21.73;12.47;;;3.60;99.90;;;;;;5062007;28;20486;-62
2021/11/27 09:59:06;;;;;;;16.60;11.60;;;3.60;99.90;;;;;;5065629;28;20520;-62
2021/11/27 10:01:36;;;;;;;16.93;12.30;;;3.60;99.90;;;;;;5065595;28;20449;-62
2021/11/27 10:04:08;;;;;;;17.03;10.67;;;3.60;99.90;;;;;;5071523;28;20861;-63
2021/11/27 10:06:39;;;;;;;16.30;11.03;;;3.60;99.90;;;;;;5056426;28;20500;-62
2021/11/27 10:09:12;;;;;;;17.07;10.10;;;3.60;99.90;;;;;;5060152;28;20513;-62
2021/11/27 10:11:48;;;;;;;17.90;10.27;;;3.60;99.90;;;;;;5054261;28;20489;-62
2021/11/27 10:14:19;;;;;;;16.00;10.17;;;3.60;99.90;;;;;;5052891;28;20560;-61
2021/11/27 10:17:13;;;;;;;12.73;10.20;;;3.60;99.90;;;;;;5051458;28;20580;-62
2021/11/27 10:19:58;;;;;;;19.00;10.80;;;3.70;99.90;;;;;;5052861;28;20925;-62
2021/11/27 10:22:41;;;;;;;23.60;10.43;;;3.80;99.90;;;;;;5055537;28;20549;-62
2021/11/27 10:25:41;;;;;;;16.80;10.70;;;3.80;99.90;;;;;;5037877;28;20908;-62
2021/11/27 10:28:17;;;;;;;16.50;9.63;;;3.90;99.90;;;;;;5043084;28;20470;-60
2021/11/27 10:30:58;;;;;;;13.13;8.33;;;4.00;99.90;;;;;;5056439;28;20572;-62
2021/11/27 10:33:29;;;;;;;13.27;9.40;;;4.00;99.90;;;;;;5054666;28;20908;-62
2021/11/27 10:36:07;;;;;;;16.70;10.93;;;3.80;99.90;;;;;;5054918;28;20466;-62
2021/11/27 10:38:47;;;;;;;15.20;9.67;;;3.80;99.90;;;;;;5056898;28;20497;-62
2021/11/27 10:41:17;;;;;;;18.00;10.77;;;3.70;99.90;;;;;;5061918;28;20526;-62
2021/11/27 10:43:59;;;;;;;11.70;9.60;;;3.70;99.90;;;;;;5064711;28;20504;-61
2021/11/27 10:46:29;;;;;;;15.60;9.60;;;3.70;99.90;;;;;;5054632;28;20566;-62
2021/11/27 10:48:58;;;;;;;15.37;10.70;;;3.70;99.90;;;;;;5050714;28;20811;-61
2021/11/27 10:51:28;;;;;;;14.53;10.17;;;3.90;99.90;;;;;;5065439;28;20516;-61
2021/11/27 10:54:00;;;;;;;14.70;10.07;;;3.90;99.90;;;;;;5060128;28;20461;-62
2021/11/27 10:56:47;;;;;;;15.13;9.33;;;3.80;99.90;;;;;;5066982;28;20454;-62
2021/11/27 10:59:15;;;;;;;17.20;9.10;;;3.90;99.90;;;;;;5065466;28;20940;-63
2021/11/27 11:02:05;;;;;;;13.40;8.73;;;4.00;99.90;;;;;;5069695;28;20507;-62
2021/11/27 11:04:33;;;;;;;15.30;8.90;;;4.00;99.90;;;;;;5078241;28;20535;-62
2021/11/27 11:07:28;;;;;;;13.67;8.77;;;4.20;99.90;;;;;;5068369;28;20480;-62
2021/11/27 11:10:14;;;;;;;15.03;8.83;;;4.30;99.90;;;;;;5059370;28;20470;-61
2021/11/27 11:12:46;;;;;;;14.97;8.83;;;4.20;99.90;;;;;;5058241;28;20552;-62
2021/11/27 11:15:17;;;;;;;15.83;10.20;;;3.90;99.90;;;;;;5057212;28;20568;-61
2021/11/27 11:17:50;;;;;;;26.10;11.10;;;3.80;99.90;;;;;;5058220;28;20976;-62
2021/11/27 11:20:24;;;;;;;15.10;8.80;;;3.60;99.90;;;;;;5057981;28;20470;-62
2021/11/27 11:23:04;;;;;;;18.60;10.37;;;3.60;99.90;;;;;;5058884;28;20564;-62
2021/11/27 11:25:34;;;;;;;15.73;8.40;;;3.50;99.90;;;;;;5058578;28;20903;-62
2021/11/27 11:28:12;;;;;;;14.10;8.90;;;3.50;99.90;;;;;;5058722;28;20560;-62
2021/11/27 11:30:48;;;;;;;14.37;8.00;;;3.50;99.90;;;;;;5059201;28;20466;-62
2021/11/27 11:33:19;;;;;;;18.57;9.70;;;3.50;99.90;;;;;;5058868;28;20548;-63
2021/11/27 11:35:50;;;;;;;13.83;7.90;;;3.60;99.90;;;;;;5058234;28;20565;-62
2021/11/27 11:38:21;;;;;;;15.00;7.63;;;3.60;99.90;;;;;;5058926;28;20982;-62
2021/11/27 11:40:49;;;;;;;13.83;7.77;;;3.50;99.90;;;;;;5059093;28;20469;-62
2021/11/27 11:43:16;;;;;;;12.50;7.87;;;3.50;99.90;;;;;;5058721;28;20764;-62
2021/11/27 11:45:47;;;;;;;16.47;8.13;;;3.60;99.90;;;;;;5058142;28;20461;-62
2021/11/27 11:48:21;;;;;;;9.90;7.00;;;3.60;99.90;;;;;;5064784;28;20454;-60
2021/11/27 11:51:20;;;;;;;18.23;9.90;;;3.50;99.90;;;;;;5078927;28;20492;-62
2021/11/27 11:53:50;;;;;;;9.37;8.10;;;3.60;99.90;;;;;;5063833;28;20845;-62
2021/11/27 11:56:19;;;;;;;20.27;11.07;;;3.70;99.90;;;;;;5058535;28;20489;-63
2021/11/27 11:58:49;;;;;;;17.67;8.93;;;4.00;99.90;;;;;;5038801;28;20997;-62
2021/11/27 12:01:29;;;;;;;13.00;9.17;;;4.30;99.90;;;;;;5043428;28;20466;-63
2021/11/27 12:03:59;;;;;;;11.33;8.60;;;4.30;99.90;;;;;;5057788;28;20488;-63
2021/11/27 12:06:29;;;;;;;13.40;8.83;;;4.40;99.90;;;;;;5057837;28;20474;-62
2021/11/27 12:09:11;;;;;;;12.60;7.50;;;4.60;99.90;;;;;;5058078;28;20458;-63
2021/11/27 12:12:05;;;;;;;11.57;7.50;;;4.70;99.90;;;;;;5057922;28;20516;-63
2021/11/27 12:15:00;;;;;;;14.90;8.67;;;4.60;99.90;;;;;;5057967;28;20462;-63
2021/11/27 12:17:30;;;;;;;22.90;10.33;;;4.40;99.90;;;;;;5057989;28;20494;-63
2021/11/27 12:20:02;;;;;;;16.10;9.33;;;4.40;99.90;;;;;;5057836;28;20515;-63
2021/11/27 12:22:40;;;;;;;12.30;9.30;;;4.60;99.90;;;;;;5058180;28;20466;-63
2021/11/27 12:25:13;;;;;;;22.50;12.80;;;4.60;99.90;;;;;;5057981;28;20462;-63
2021/11/27 12:28:12;;;;;;;15.73;9.47;;;4.90;99.90;;;;;;5057478;28;20462;-63
2021/11/27 12:31:03;;;;;;;18.03;9.23;;;5.10;99.90;;;;;;5057894;28;20991;-63
2021/11/27 12:33:43;;;;;;;14.57;8.53;;;5.00;99.90;;;;;;5057034;28;20578;-60
2021/11/27 12:36:42;;;;;;;12.10;8.13;;;4.80;99.90;;;;;;5053110;28;20878;-61
2021/11/27 12:39:13;;;;;;;14.30;8.27;;;4.70;99.90;;;;;;5055011;28;20510;-63
2021/11/27 12:41:43;;;;;;;21.13;10.33;;;4.70;99.90;;;;;;5056272;28;20540;-63
2021/11/27 12:44:15;;;;;;;14.70;9.37;;;4.70;99.90;;;;;;5056300;28;20466;-63
2021/11/27 12:46:45;;;;;;;17.40;9.57;;;4.70;1.00;;;;;;5055540;28;20509;-63
2021/11/27 12:49:50;;;;;;;15.03;9.57;;;4.70;77.40;;;;;;5056428;28;20450;-61
2021/11/27 12:52:36;;;;;;;12.20;8.30;;;4.60;1.00;;;;;;5056169;28;20500;-63
2021/11/27 12:55:46;;;;;;;12.50;6.90;;;4.40;1.00;;;;;;5054635;28;20557;-63
2021/11/27 12:58:43;;;;;;;11.17;6.50;;;4.40;1.00;;;;;;5036465;28;20664;-63
2021/11/27 13:01:24;;;;;;;14.63;8.47;;;4.20;99.90;;;;;;5055495;28;20472;-63
2021/11/27 13:03:58;;;;;;;16.13;7.23;;;4.30;1.00;;;;;;5052747;28;20577;-63
2021/11/27 13:06:31;;;;;;;15.83;6.23;;;4.20;1.00;;;;;;5054839;28;20500;-63
2021/11/27 13:09:12;;;;;;;12.13;5.30;;;4.40;99.90;;;;;;5057031;28;20533;-63
2021/11/27 13:11:43;;;;;;;14.50;6.30;;;4.20;99.90;;;;;;5056760;28;20880;-63
2021/11/27 13:14:24;;;;;;;13.03;5.90;;;4.20;99.90;;;;;;5056965;28;20952;-63